Pearl Of Scandinavia — OWFU2 — position and weather

sailwx.info

Track history (hours):
 
Tides and Currents Weather Stations Pressure Air Temp Water Temp Dewpoint Dewpoint Depression Visibility Wind Speed Wind Dir Waves Ship Positions

Pearl Of Scandinavia

Last reported at 2019-May-20 02:00 UTC. Time now 2019-May-20 02:27 UTC.
Position N 58°33' E 010°51'.

Length 176.4 m; beam 34 m; draft 6.215 m.

Type: Ship. MMSI: 219945000.

Date/timePositionNaut miles runAvg speedWind from/ knotsBaromVisibWave heightAir tempDewpointWater temp
2019-May-20 02:00N 58°33' E 010°51'815.4
2019-May-20 01:30N 58°26' E 010°56'815.7
2019-May-20 01:00N 58°18' E 011°00'816.2
2019-May-20 00:30N 58°11' E 011°05'816.3
2019-May-20 00:00N 58°03' E 011°10'816.3
2019-May-19 23:30N 57°55' E 011°15'816.2
2019-May-19 23:00N 57°48' E 011°20'816.3
2019-May-19 22:31N 57°40' E 011°26'816.4
2019-May-19 22:01N 57°33' E 011°31'816.4
2019-May-19 21:31N 57°25' E 011°38'816.5
2019-May-19 21:01N 57°18' E 011°47'816.5
2019-May-19 20:31N 57°11' E 011°54'816.6
2019-May-19 20:00N 57°03' E 011°60'6016.2
2019-May-19 16:19N 56°07' E 012°34'516.9
2019-May-19 16:01N 56°03' E 012°40'815.9
2019-May-19 15:30N 55°55' E 012°44'816.4
2019-May-19 15:01N 55°47' E 012°42'611.4
2019-May-19 14:30N 55°42' E 012°36'0 0.2
2019-May-19 13:33N 55°42' E 012°36'0 0.0
2019-May-19 12:21N 55°42' E 012°36'0 0.0
2019-May-19 11:51N 55°42' E 012°36'0 0.0
2019-May-19 09:14N 55°42' E 012°36'0 0.0
2019-May-19 08:52N 55°42' E 012°36'0 0.0
2019-May-19 08:30N 55°42' E 012°36'0 0.0
2019-May-19 07:44N 55°42' E 012°36'0 1.3
2019-May-19 07:30N 55°42' E 012°36'4 7.9
2019-May-19 07:00N 55°45' E 012°41'714.7
2019-May-19 06:31N 55°53' E 012°40'714.5
2019-May-19 06:00N 55°60' E 012°40'713.9
2019-May-19 05:30N 56°06' E 012°34'714.1
2019-May-19 04:59N 56°11' E 012°25'5815.6
2019-May-19 01:15N 57°04' E 011°40'416.2
2019-May-19 00:59N 57°08' E 011°37'815.9
2019-May-19 00:30N 57°15' E 011°32'815.8
2019-May-19 00:00N 57°23' E 011°28'816.0
2019-May-18 23:30N 57°30' E 011°23'816.1
2019-May-18 23:00N 57°38' E 011°19'816.2
2019-May-18 22:30N 57°46' E 011°15'816.3
2019-May-18 22:00N 57°54' E 011°11'816.7
2019-May-18 21:30N 58°02' E 011°07'816.4
2019-May-18 21:00N 58°10' E 011°04'816.3
2019-May-18 20:30N 58°17' E 010°59'916.5
2019-May-18 19:59N 58°26' E 010°54'816.7
2019-May-18 19:30N 58°33' E 010°50'917.2
2019-May-18 19:00N 58°42' E 010°46'917.4
2019-May-18 18:30N 58°50' E 010°41'917.4
2019-May-18 18:00N 58°58' E 010°37'816.6
2019-May-18 17:30N 59°07' E 010°37'917.7
2019-May-18 17:00N 59°16' E 010°36'918.1
2019-May-18 16:30N 59°24' E 010°33'917.6
2019-May-18 16:00N 59°33' E 010°37'815.7
2019-May-18 15:30N 59°41' E 010°36'815.9
2019-May-18 15:00N 59°49' E 010°34'714.3
2019-May-18 14:30N 59°54' E 010°44'0 0.8
2019-May-18 13:58N 59°54' E 010°45'0 0.0
2019-May-18 13:28N 59°54' E 010°45'0 0.0
2019-May-18 12:59N 59°54' E 010°45'0 0.0
2019-May-18 12:28N 59°54' E 010°45'0 0.0
2019-May-18 11:58N 59°54' E 010°45'0 0.0
2019-May-18 11:28N 59°54' E 010°45'0 0.0
2019-May-18 10:58N 59°54' E 010°45'0 0.0
2019-May-18 10:28N 59°54' E 010°45'0 0.0
2019-May-18 09:59N 59°54' E 010°45'0 0.0
2019-May-18 09:29N 59°54' E 010°45'0 0.0
2019-May-18 08:58N 59°54' E 010°45'0 0.0
2019-May-18 08:28N 59°54' E 010°45'0 0.0
2019-May-18 07:59N 59°54' E 010°45'1 2.2
2019-May-18 07:30N 59°54' E 010°43'714.7
2019-May-18 07:00N 59°48' E 010°35'714.9
2019-May-18 06:30N 59°40' E 010°37'714.6
2019-May-18 06:00N 59°33' E 010°37'815.3
2019-May-18 05:30N 59°26' E 010°34'815.4
2019-May-18 05:01N 59°18' E 010°36'815.2
2019-May-18 04:30N 59°11' E 010°39'815.5
2019-May-18 04:00N 59°03' E 010°42'715.0
2019-May-18 03:30N 58°56' E 010°44'815.3
2019-May-18 03:01N 58°48' E 010°47'815.2
2019-May-18 02:30N 58°40' E 010°49'815.2
2019-May-18 02:00N 58°33' E 010°52'815.1
2019-May-18 01:30N 58°26' E 010°56'815.5
2019-May-18 01:00N 58°18' E 011°00'815.5
2019-May-18 00:30N 58°11' E 011°05'815.6
2019-May-18 00:00N 58°04' E 011°10'815.7
2019-May-17 23:30N 57°56' E 011°14'815.5
2019-May-17 23:01N 57°49' E 011°19'815.6
2019-May-17 22:31N 57°42' E 011°25'815.7
2019-May-17 22:00N 57°34' E 011°30'815.6
2019-May-17 21:31N 57°27' E 011°36'816.0
2019-May-17 21:00N 57°21' E 011°44'816.0
2019-May-17 20:31N 57°14' E 011°52'815.7
2019-May-17 20:01N 57°07' E 011°58'6016.3
2019-May-17 16:20N 56°10' E 012°31'618.7
2019-May-17 16:01N 56°05' E 012°37'917.3
2019-May-17 15:31N 55°57' E 012°43'816.2
2019-May-17 15:01N 55°49' E 012°43'714.2
2019-May-17 14:30N 55°43' E 012°37'1 1.3
2019-May-17 13:58N 55°42' E 012°36'0 0.0
2019-May-17 13:28N 55°42' E 012°36'0 0.0
2019-May-17 12:58N 55°42' E 012°36'0 0.0
2019-May-17 12:28N 55°42' E 012°36'0 0.0
2019-May-17 11:58N 55°42' E 012°36'0 0.0
2019-May-17 11:28N 55°42' E 012°36'0 0.0
2019-May-17 10:58N 55°42' E 012°36'0 0.0
2019-May-17 10:28N 55°42' E 012°36'0 0.0
2019-May-17 09:58N 55°42' E 012°36'0 0.0
2019-May-17 09:28N 55°42' E 012°36'0 0.0
2019-May-17 08:58N 55°42' E 012°36'0 0.0
2019-May-17 08:28N 55°42' E 012°36'0 0.0
2019-May-17 07:58N 55°42' E 012°36'0 0.7
2019-May-17 07:30N 55°42' E 012°36'5 9.4
2019-May-17 07:01N 55°46' E 012°41'714.1
2019-May-17 06:31N 55°53' E 012°40'715.0
2019-May-17 06:01N 56°01' E 012°40'714.3
2019-May-17 05:30N 56°06' E 012°33'6316.1
2019-May-17 01:34N 57°03' E 011°40'116.7
2019-May-17 01:31N 57°03' E 011°39'916.8
2019-May-17 00:59N 57°12' E 011°34'816.8
2019-May-17 00:31N 57°19' E 011°29'816.7
2019-May-17 00:01N 57°27' E 011°24'816.1
2019-May-16 23:31N 57°35' E 011°19'816.4
2019-May-16 23:01N 57°43' E 011°16'816.9
2019-May-16 22:31N 57°51' E 011°11'816.8
2019-May-16 22:01N 57°59' E 011°07'917.1
2019-May-16 21:31N 58°07' E 011°02'917.1
2019-May-16 21:00N 58°16' E 010°58'816.8
2019-May-16 20:30N 58°24' E 010°54'917.0
2019-May-16 20:00N 58°32' E 010°50'917.1
2019-May-16 19:30N 58°40' E 010°45'916.9
2019-May-16 18:59N 58°49' E 010°41'817.2
2019-May-16 18:31N 58°56' E 010°36'816.8
2019-May-16 18:01N 59°05' E 010°36'917.2
2019-May-16 17:31N 59°14' E 010°37'917.7
2019-May-16 17:01N 59°22' E 010°35'917.4
2019-May-16 16:31N 59°31' E 010°35'816.6
2019-May-16 16:00N 59°39' E 010°37'714.9
2019-May-16 15:30N 59°46' E 010°33'815.9
2019-May-16 15:00N 59°53' E 010°41'2 4.0
2019-May-16 14:29N 59°54' E 010°45'0 0.0
2019-May-16 13:59N 59°54' E 010°45'0 0.0
2019-May-16 13:29N 59°54' E 010°45'0 0.0
2019-May-16 12:59N 59°54' E 010°45'0 0.0
2019-May-16 12:29N 59°54' E 010°45'0 0.0
2019-May-16 11:59N 59°54' E 010°45'0 0.0
2019-May-16 11:29N 59°54' E 010°45'0 0.0
2019-May-16 10:59N 59°54' E 010°45'0 0.0
2019-May-16 10:29N 59°54' E 010°45'0 0.0
2019-May-16 09:59N 59°54' E 010°45'0 0.0
2019-May-16 09:29N 59°54' E 010°45'0 0.0
2019-May-16 08:59N 59°54' E 010°45'0 0.0
2019-May-16 08:29N 59°54' E 010°45'0 0.0
2019-May-16 07:59N 59°54' E 010°45'0 0.3
2019-May-16 07:30N 59°54' E 010°45'713.8
2019-May-16 07:00N 59°49' E 010°35'815.6
2019-May-16 06:30N 59°41' E 010°36'714.4
2019-May-16 06:00N 59°34' E 010°38'815.8
2019-May-16 05:30N 59°27' E 010°34'815.2
2019-May-16 05:00N 59°19' E 010°36'815.4
2019-May-16 04:30N 59°12' E 010°39'815.5
2019-May-16 04:00N 59°04' E 010°41'815.4
2019-May-16 03:31N 58°56' E 010°42'815.3
2019-May-16 03:00N 58°49' E 010°44'815.4
2019-May-16 02:30N 58°41' E 010°46'815.5
2019-May-16 02:00N 58°34' E 010°51'815.4
2019-May-16 01:31N 58°27' E 010°56'815.2
2019-May-16 01:00N 58°19' E 011°00'815.4
2019-May-16 00:30N 58°12' E 011°05'815.7
2019-May-16 00:00N 58°05' E 011°10'815.7
2019-May-15 23:30N 57°57' E 011°15'815.7
2019-May-15 23:00N 57°50' E 011°20'815.8
2019-May-15 22:30N 57°43' E 011°26'816.3
2019-May-15 22:00N 57°35' E 011°30'816.1
2019-May-15 21:30N 57°27' E 011°36'816.3
2019-May-15 21:00N 57°20' E 011°44'816.7
2019-May-15 20:31N 57°13' E 011°52'816.8
2019-May-15 20:00N 57°06' E 011°59'816.4
2019-May-15 19:30N 56°58' E 012°05'816.5
2019-May-15 19:00N 56°50' E 012°10'916.4
2019-May-15 18:29N 56°42' E 012°13'815.9
2019-May-15 18:00N 56°35' E 012°16'815.8
2019-May-15 17:30N 56°27' E 012°20'816.0
2019-May-15 17:00N 56°19' E 012°23'816.7
2019-May-15 16:30N 56°12' E 012°29'917.5
2019-May-15 16:00N 56°04' E 012°37'816.8
2019-May-15 15:30N 55°57' E 012°43'816.9
2019-May-15 15:00N 55°48' E 012°43'713.9
2019-May-15 14:30N 55°42' E 012°36'0 0.3
2019-May-15 14:00N 55°42' E 012°36'0 0.0
2019-May-15 13:30N 55°42' E 012°36'0 0.0
2019-May-15 13:00N 55°42' E 012°36'0 0.0
2019-May-15 12:30N 55°42' E 012°36'0 0.0
2019-May-15 12:00N 55°42' E 012°36'0 0.0
2019-May-15 11:30N 55°42' E 012°36'0 0.0
2019-May-15 11:00N 55°42' E 012°36'0 0.0
2019-May-15 10:30N 55°42' E 012°36'0 0.0
2019-May-15 09:58N 55°42' E 012°36'0 0.0
2019-May-15 09:30N 55°42' E 012°36'0 0.0
2019-May-15 09:00N 55°42' E 012°36'0 0.0
2019-May-15 08:30N 55°42' E 012°36'0 0.0
2019-May-15 08:00N 55°42' E 012°36'0 0.7
2019-May-15 07:31N 55°42' E 012°36'510.2
2019-May-15 07:00N 55°47' E 012°42'713.4
2019-May-15 06:30N 55°53' E 012°40'714.1
2019-May-15 06:00N 56°00' E 012°40'714.0
2019-May-15 05:30N 56°06' E 012°33'714.3
2019-May-15 05:00N 56°12' E 012°27'5516.1
2019-May-15 01:34N 57°05' E 011°58'116.6
2019-May-15 01:29N 57°07' E 011°57'816.4
2019-May-15 01:00N 57°14' E 011°52'816.3
2019-May-15 00:30N 57°21' E 011°44'816.5
2019-May-15 00:00N 57°28' E 011°36'816.6
2019-May-14 23:30N 57°35' E 011°28'917.1
2019-May-14 23:00N 57°43' E 011°22'917.3
2019-May-14 22:30N 57°51' E 011°16'917.4
2019-May-14 22:00N 57°59' E 011°11'816.9
2019-May-14 21:30N 58°07' E 011°07'816.6
2019-May-14 21:00N 58°15' E 011°02'916.9
2019-May-14 20:30N 58°23' E 010°58'917.1
2019-May-14 19:58N 58°32' E 010°53'816.6
2019-May-14 19:30N 58°40' E 010°49'816.6
2019-May-14 19:00N 58°48' E 010°46'816.8
2019-May-14 18:30N 58°56' E 010°43'917.0
2019-May-14 18:00N 59°04' E 010°41'917.2
2019-May-14 17:30N 59°13' E 010°38'917.2
2019-May-14 17:00N 59°21' E 010°35'816.6
2019-May-14 16:30N 59°30' E 010°34'815.9
2019-May-14 16:00N 59°37' E 010°37'713.7
2019-May-14 15:30N 59°44' E 010°33'816.0
2019-May-14 15:00N 59°52' E 010°37'5 9.2
2019-May-14 14:30N 59°54' E 010°45'0 0.0
2019-May-14 13:58N 59°54' E 010°45'0 0.0
2019-May-14 13:28N 59°54' E 010°45'0 0.0
2019-May-14 12:58N 59°54' E 010°45'0 0.0
2019-May-14 12:28N 59°54' E 010°45'0 0.0
2019-May-14 11:58N 59°54' E 010°45'0 0.0
2019-May-14 11:28N 59°54' E 010°45'0 0.0
2019-May-14 10:58N 59°54' E 010°45'0 0.0
2019-May-14 10:28N 59°54' E 010°45'0 0.0
2019-May-14 09:58N 59°54' E 010°45'0 0.0
2019-May-14 09:28N 59°54' E 010°45'0 0.0
2019-May-14 08:58N 59°54' E 010°45'0 0.0
2019-May-14 08:28N 59°54' E 010°45'0 0.0
2019-May-14 07:58N 59°54' E 010°45'0 0.2
2019-May-14 07:29N 59°54' E 010°45'612.7
2019-May-14 07:00N 59°50' E 010°36'815.4
2019-May-14 06:30N 59°42' E 010°36'713.7
2019-May-14 06:01N 59°35' E 010°38'714.9
2019-May-14 05:31N 59°28' E 010°34'815.3
2019-May-14 05:01N 59°21' E 010°36'815.3
2019-May-14 04:31N 59°13' E 010°38'815.4
2019-May-14 04:01N 59°05' E 010°40'815.7
2019-May-14 03:31N 58°58' E 010°42'815.8
2019-May-14 03:00N 58°50' E 010°44'815.9
2019-May-14 02:31N 58°42' E 010°45'816.0
2019-May-14 02:00N 58°34' E 010°50'816.0
2019-May-14 01:30N 58°27' E 010°55'815.8
2019-May-14 01:00N 58°19' E 010°60'816.0
2019-May-14 00:30N 58°12' E 011°05'816.2
2019-May-14 00:01N 58°04' E 011°10'816.4
2019-May-13 23:31N 57°56' E 011°14'816.2
2019-May-13 23:01N 57°49' E 011°19'816.5
2019-May-13 22:31N 57°41' E 011°25'816.7
2019-May-13 22:01N 57°33' E 011°31'917.0
2019-May-13 21:30N 57°26' E 011°38'816.8
2019-May-13 21:01N 57°19' E 011°47'816.9
2019-May-13 20:30N 57°11' E 011°54'917.1
2019-May-13 20:00N 57°03' E 012°01'816.8
2019-May-13 19:30N 56°55' E 012°06'5116.1
2019-May-13 16:20N 56°07' E 012°34'516.9
2019-May-13 16:01N 56°02' E 012°40'816.5
2019-May-13 15:31N 55°55' E 012°44'816.2
2019-May-13 15:01N 55°47' E 012°42'611.2
2019-May-13 14:30N 55°42' E 012°36'0 0.0
2019-May-13 14:00N 55°42' E 012°36'0 0.0
2019-May-13 13:30N 55°42' E 012°36'0 0.0
2019-May-13 13:00N 55°42' E 012°36'0 0.0
2019-May-13 12:30N 55°42' E 012°36'0 0.0
2019-May-13 12:00N 55°42' E 012°36'0 0.0
2019-May-13 11:30N 55°42' E 012°36'0 0.0
2019-May-13 11:00N 55°42' E 012°36'0 0.0
2019-May-13 10:30N 55°42' E 012°36'0 0.0
2019-May-13 10:00N 55°42' E 012°36'0 0.0
2019-May-13 09:30N 55°42' E 012°36'0 0.0
2019-May-13 09:00N 55°42' E 012°36'0 0.0
2019-May-13 08:30N 55°42' E 012°36'0 0.0
2019-May-13 08:00N 55°42' E 012°36'0 0.7
2019-May-13 07:30N 55°42' E 012°36'510.0
2019-May-13 07:00N 55°46' E 012°41'714.0
2019-May-13 06:30N 55°53' E 012°40'714.5
2019-May-13 06:00N 56°01' E 012°40'714.6
2019-May-13 05:30N 56°07' E 012°33'815.3
2019-May-13 05:00N 56°13' E 012°26'5315.6
2019-May-13 01:36N 57°04' E 011°57'815.7
2019-May-13 01:06N 57°12' E 011°53'216.4
2019-May-13 01:00N 57°13' E 011°52'816.3
2019-May-13 00:30N 57°20' E 011°45'816.0
2019-May-13 00:00N 57°27' E 011°37'816.5
2019-May-12 23:30N 57°34' E 011°29'816.1
2019-May-12 23:00N 57°41' E 011°22'816.0
2019-May-12 22:30N 57°49' E 011°16'816.0
2019-May-12 22:00N 57°56' E 011°12'815.9
2019-May-12 21:30N 58°04' E 011°09'816.4
2019-May-12 21:00N 58°12' E 011°04'816.5
2019-May-12 20:30N 58°20' E 010°59'816.1
2019-May-12 20:00N 58°27' E 010°55'815.6
2019-May-12 19:30N 58°35' E 010°51'816.3
2019-May-12 19:00N 58°43' E 010°47'816.5
2019-May-12 18:30N 58°51' E 010°44'816.2
2019-May-12 18:00N 58°59' E 010°42'816.4
2019-May-12 17:30N 59°07' E 010°39'816.9
2019-May-12 17:00N 59°15' E 010°37'917.2
2019-May-12 16:31N 59°24' E 010°34'917.0
2019-May-12 16:01N 59°32' E 010°36'816.6
2019-May-12 15:30N 59°40' E 010°37'815.6
2019-May-12 15:00N 59°48' E 010°34'815.1
2019-May-12 14:30N 59°54' E 010°43'1 1.3
2019-May-12 14:00N 59°54' E 010°45'0 0.0
2019-May-12 13:29N 59°54' E 010°45'0 0.0
2019-May-12 12:59N 59°54' E 010°45'0 0.0
2019-May-12 12:28N 59°54' E 010°45'0 0.0
2019-May-12 11:54N 59°54' E 010°45'0 0.0
2019-May-12 11:27N 59°54' E 010°45'0 0.0
2019-May-12 10:56N 59°54' E 010°45'0 0.0
2019-May-12 10:25N 59°54' E 010°45'0 0.0
2019-May-12 09:58N 59°54' E 010°45'0 0.0
2019-May-12 09:30N 59°54' E 010°45'0 0.0
2019-May-12 08:56N 59°54' E 010°45'0 0.0
2019-May-12 08:29N 59°54' E 010°45'0 0.0
2019-May-12 07:58N 59°54' E 010°45'0 0.3
2019-May-12 07:30N 59°54' E 010°45'713.7
2019-May-12 07:00N 59°49' E 010°35'815.1
2019-May-12 06:31N 59°42' E 010°36'714.0
2019-May-12 06:00N 59°35' E 010°38'815.8
2019-May-12 05:30N 59°27' E 010°34'815.7
2019-May-12 05:00N 59°19' E 010°36'815.7
2019-May-12 04:31N 59°12' E 010°39'815.2
2019-May-12 04:01N 59°04' E 010°41'815.7
2019-May-12 03:30N 58°56' E 010°42'816.1
2019-May-12 03:00N 58°48' E 010°44'815.9
2019-May-12 02:30N 58°40' E 010°46'815.8
2019-May-12 02:00N 58°33' E 010°51'815.5
2019-May-12 01:30N 58°26' E 010°56'816.3
2019-May-12 00:59N 58°18' E 011°02'816.5
2019-May-12 00:30N 58°10' E 011°07'816.0
2019-May-12 00:01N 58°03' E 011°12'815.6
2019-May-11 23:31N 57°55' E 011°17'815.9
2019-May-11 23:01N 57°48' E 011°22'816.3
2019-May-11 22:31N 57°40' E 011°26'816.8
2019-May-11 22:01N 57°32' E 011°32'816.0
2019-May-11 21:31N 57°25' E 011°39'815.7
2019-May-11 21:01N 57°19' E 011°46'816.1
2019-May-11 20:31N 57°12' E 011°54'816.4
2019-May-11 20:01N 57°04' E 011°60'916.5
2019-May-11 19:28N 56°56' E 012°06'3716.1
2019-May-11 17:09N 56°20' E 012°23'1516.3
2019-May-11 16:14N 56°06' E 012°35'416.1
2019-May-11 16:01N 56°04' E 012°39'816.1
2019-May-11 15:31N 55°56' E 012°43'815.5
2019-May-11 15:01N 55°48' E 012°43'713.4
2019-May-11 14:30N 55°42' E 012°37'1 0.9
2019-May-11 13:55N 55°42' E 012°36'0 0.0
2019-May-11 13:25N 55°42' E 012°36'0 0.0
2019-May-11 12:58N 55°42' E 012°36'0 0.0
2019-May-11 12:25N 55°42' E 012°36'0 0.0
2019-May-11 11:55N 55°42' E 012°36'0 0.0
2019-May-11 11:28N 55°42' E 012°36'0 0.0
2019-May-11 10:55N 55°42' E 012°36'0 0.0
2019-May-11 10:07N 55°42' E 012°36'0 0.0
2019-May-11 09:55N 55°42' E 012°36'0 0.0
2019-May-11 09:28N 55°42' E 012°36'0 0.0
2019-May-11 08:49N 55°42' E 012°36'0 0.0
2019-May-11 08:25N 55°42' E 012°36'0 0.0
2019-May-11 07:49N 55°42' E 012°36'0 0.6
2019-May-11 07:31N 55°42' E 012°36'4 9.0
2019-May-11 07:00N 55°46' E 012°41'714.9
2019-May-11 06:30N 55°53' E 012°40'714.7
2019-May-11 06:00N 56°00' E 012°40'714.9
2019-May-11 05:30N 56°07' E 012°32'815.1
2019-May-11 05:00N 56°13' E 012°26'6616.0
2019-May-11 00:52N 57°16' E 011°49'616.9
2019-May-11 00:30N 57°21' E 011°43'816.9
2019-May-11 00:00N 57°28' E 011°34'816.4
2019-May-10 23:30N 57°36' E 011°28'816.8
2019-May-10 23:00N 57°44' E 011°21'816.4
2019-May-10 22:30N 57°51' E 011°16'816.0
2019-May-10 22:00N 57°59' E 011°12'815.9
2019-May-10 21:30N 58°07' E 011°07'816.1
2019-May-10 21:00N 58°14' E 011°03'816.5
2019-May-10 20:30N 58°22' E 010°58'816.4
2019-May-10 20:00N 58°30' E 010°54'816.0
2019-May-10 19:29N 58°38' E 010°50'815.9
2019-May-10 19:00N 58°45' E 010°46'816.1
2019-May-10 18:30N 58°53' E 010°44'816.4
2019-May-10 18:00N 59°01' E 010°41'816.7
2019-May-10 17:30N 59°10' E 010°38'816.6
2019-May-10 17:00N 59°18' E 010°36'816.7
2019-May-10 16:30N 59°26' E 010°33'817.0
2019-May-10 16:00N 59°34' E 010°38'715.0
2019-May-10 15:30N 59°42' E 010°36'815.8
2019-May-10 15:00N 59°49' E 010°34'713.5
2019-May-10 14:30N 59°54' E 010°44'0 0.3
2019-May-10 13:56N 59°54' E 010°45'0 0.0
2019-May-10 13:26N 59°54' E 010°45'0 0.0
2019-May-10 12:56N 59°54' E 010°45'0 0.0
2019-May-10 12:27N 59°54' E 010°45'0 0.0
2019-May-10 11:56N 59°54' E 010°45'0 0.0
2019-May-10 11:26N 59°54' E 010°45'0 0.0
2019-May-10 10:56N 59°54' E 010°45'0 0.0
2019-May-10 10:26N 59°54' E 010°45'0 0.0
2019-May-10 09:56N 59°54' E 010°45'0 0.0
2019-May-10 09:26N 59°54' E 010°45'0 0.0
2019-May-10 08:56N 59°54' E 010°45'0 0.0
2019-May-10 08:27N 59°54' E 010°45'0 0.0
2019-May-10 07:56N 59°54' E 010°45'0 0.4
2019-May-10 07:29N 59°54' E 010°44'714.6
2019-May-10 07:00N 59°49' E 010°35'714.3
2019-May-10 06:30N 59°42' E 010°36'713.6
2019-May-10 06:01N 59°35' E 010°38'714.9
2019-May-10 05:30N 59°28' E 010°34'714.9
2019-May-10 05:01N 59°20' E 010°36'815.5
2019-May-10 04:30N 59°13' E 010°38'815.5
2019-May-10 04:01N 59°05' E 010°40'815.5
2019-May-10 03:30N 58°57' E 010°42'815.9
2019-May-10 03:00N 58°49' E 010°44'  
Track history (hours):
 
Tides and Currents Weather Stations Pressure Air Temp Water Temp Dewpoint Dewpoint Depression Visibility Wind Speed Wind Dir Waves Ship Positions

Pearl Of Scandinavia

Last reported at 2019-May-20 02:00 UTC. Time now 2019-May-20 02:27 UTC.
Position N 58°33' E 010°51'.

Length 176.4 m; beam 34 m; draft 6.215 m.

Type: Ship. MMSI: 219945000.

Date/timePositionNaut miles runAvg speedWind from/ knotsBaromVisibWave heightAir tempDewpointWater temp
2019-May-20 02:00N 58°33' E 010°51'815.4
2019-May-20 01:30N 58°26' E 010°56'815.7
2019-May-20 01:00N 58°18' E 011°00'816.2
2019-May-20 00:30N 58°11' E 011°05'816.3
2019-May-20 00:00N 58°03' E 011°10'816.3
2019-May-19 23:30N 57°55' E 011°15'816.2
2019-May-19 23:00N 57°48' E 011°20'816.3
2019-May-19 22:31N 57°40' E 011°26'816.4
2019-May-19 22:01N 57°33' E 011°31'816.4
2019-May-19 21:31N 57°25' E 011°38'816.5
2019-May-19 21:01N 57°18' E 011°47'816.5
2019-May-19 20:31N 57°11' E 011°54'816.6
2019-May-19 20:00N 57°03' E 011°60'6016.2
2019-May-19 16:19N 56°07' E 012°34'516.9
2019-May-19 16:01N 56°03' E 012°40'815.9
2019-May-19 15:30N 55°55' E 012°44'816.4
2019-May-19 15:01N 55°47' E 012°42'611.4
2019-May-19 14:30N 55°42' E 012°36'0 0.2
2019-May-19 13:33N 55°42' E 012°36'0 0.0
2019-May-19 12:21N 55°42' E 012°36'0 0.0
2019-May-19 11:51N 55°42' E 012°36'0 0.0
2019-May-19 09:14N 55°42' E 012°36'0 0.0
2019-May-19 08:52N 55°42' E 012°36'0 0.0
2019-May-19 08:30N 55°42' E 012°36'0 0.0
2019-May-19 07:44N 55°42' E 012°36'0 1.3
2019-May-19 07:30N 55°42' E 012°36'4 7.9
2019-May-19 07:00N 55°45' E 012°41'714.7
2019-May-19 06:31N 55°53' E 012°40'714.5
2019-May-19 06:00N 55°60' E 012°40'713.9
2019-May-19 05:30N 56°06' E 012°34'714.1
2019-May-19 04:59N 56°11' E 012°25'5815.6
2019-May-19 01:15N 57°04' E 011°40'416.2
2019-May-19 00:59N 57°08' E 011°37'815.9
2019-May-19 00:30N 57°15' E 011°32'815.8
2019-May-19 00:00N 57°23' E 011°28'816.0
2019-May-18 23:30N 57°30' E 011°23'816.1
2019-May-18 23:00N 57°38' E 011°19'816.2
2019-May-18 22:30N 57°46' E 011°15'816.3
2019-May-18 22:00N 57°54' E 011°11'816.7
2019-May-18 21:30N 58°02' E 011°07'816.4
2019-May-18 21:00N 58°10' E 011°04'816.3
2019-May-18 20:30N 58°17' E 010°59'916.5
2019-May-18 19:59N 58°26' E 010°54'816.7
2019-May-18 19:30N 58°33' E 010°50'917.2
2019-May-18 19:00N 58°42' E 010°46'917.4
2019-May-18 18:30N 58°50' E 010°41'917.4
2019-May-18 18:00N 58°58' E 010°37'816.6
2019-May-18 17:30N 59°07' E 010°37'917.7
2019-May-18 17:00N 59°16' E 010°36'918.1
2019-May-18 16:30N 59°24' E 010°33'917.6
2019-May-18 16:00N 59°33' E 010°37'815.7
2019-May-18 15:30N 59°41' E 010°36'815.9
2019-May-18 15:00N 59°49' E 010°34'714.3
2019-May-18 14:30N 59°54' E 010°44'0 0.8
2019-May-18 13:58N 59°54' E 010°45'0 0.0
2019-May-18 13:28N 59°54' E 010°45'0 0.0
2019-May-18 12:59N 59°54' E 010°45'0 0.0
2019-May-18 12:28N 59°54' E 010°45'0 0.0
2019-May-18 11:58N 59°54' E 010°45'0 0.0
2019-May-18 11:28N 59°54' E 010°45'0 0.0
2019-May-18 10:58N 59°54' E 010°45'0 0.0
2019-May-18 10:28N 59°54' E 010°45'0 0.0
2019-May-18 09:59N 59°54' E 010°45'0 0.0
2019-May-18 09:29N 59°54' E 010°45'0 0.0
2019-May-18 08:58N 59°54' E 010°45'0 0.0
2019-May-18 08:28N 59°54' E 010°45'0 0.0
2019-May-18 07:59N 59°54' E 010°45'1 2.2
2019-May-18 07:30N 59°54' E 010°43'714.7
2019-May-18 07:00N 59°48' E 010°35'714.9
2019-May-18 06:30N 59°40' E 010°37'714.6
2019-May-18 06:00N 59°33' E 010°37'815.3
2019-May-18 05:30N 59°26' E 010°34'815.4
2019-May-18 05:01N 59°18' E 010°36'815.2
2019-May-18 04:30N 59°11' E 010°39'815.5
2019-May-18 04:00N 59°03' E 010°42'715.0
2019-May-18 03:30N 58°56' E 010°44'815.3
2019-May-18 03:01N 58°48' E 010°47'815.2
2019-May-18 02:30N 58°40' E 010°49'815.2
2019-May-18 02:00N 58°33' E 010°52'815.1
2019-May-18 01:30N 58°26' E 010°56'815.5
2019-May-18 01:00N 58°18' E 011°00'815.5
2019-May-18 00:30N 58°11' E 011°05'815.6
2019-May-18 00:00N 58°04' E 011°10'815.7
2019-May-17 23:30N 57°56' E 011°14'815.5
2019-May-17 23:01N 57°49' E 011°19'815.6
2019-May-17 22:31N 57°42' E 011°25'815.7
2019-May-17 22:00N 57°34' E 011°30'815.6
2019-May-17 21:31N 57°27' E 011°36'816.0
2019-May-17 21:00N 57°21' E 011°44'816.0
2019-May-17 20:31N 57°14' E 011°52'815.7
2019-May-17 20:01N 57°07' E 011°58'6016.3
2019-May-17 16:20N 56°10' E 012°31'618.7
2019-May-17 16:01N 56°05' E 012°37'917.3
2019-May-17 15:31N 55°57' E 012°43'816.2
2019-May-17 15:01N 55°49' E 012°43'714.2
2019-May-17 14:30N 55°43' E 012°37'1 1.3
2019-May-17 13:58N 55°42' E 012°36'0 0.0
2019-May-17 13:28N 55°42' E 012°36'0 0.0
2019-May-17 12:58N 55°42' E 012°36'0 0.0
2019-May-17 12:28N 55°42' E 012°36'0 0.0
2019-May-17 11:58N 55°42' E 012°36'0 0.0
2019-May-17 11:28N 55°42' E 012°36'0 0.0
2019-May-17 10:58N 55°42' E 012°36'0 0.0
2019-May-17 10:28N 55°42' E 012°36'0 0.0
2019-May-17 09:58N 55°42' E 012°36'0 0.0
2019-May-17 09:28N 55°42' E 012°36'0 0.0
2019-May-17 08:58N 55°42' E 012°36'0 0.0
2019-May-17 08:28N 55°42' E 012°36'0 0.0
2019-May-17 07:58N 55°42' E 012°36'0 0.7
2019-May-17 07:30N 55°42' E 012°36'5 9.4
2019-May-17 07:01N 55°46' E 012°41'714.1
2019-May-17 06:31N 55°53' E 012°40'715.0
2019-May-17 06:01N 56°01' E 012°40'714.3
2019-May-17 05:30N 56°06' E 012°33'6316.1
2019-May-17 01:34N 57°03' E 011°40'116.7
2019-May-17 01:31N 57°03' E 011°39'916.8
2019-May-17 00:59N 57°12' E 011°34'816.8
2019-May-17 00:31N 57°19' E 011°29'816.7
2019-May-17 00:01N 57°27' E 011°24'816.1
2019-May-16 23:31N 57°35' E 011°19'816.4
2019-May-16 23:01N 57°43' E 011°16'816.9
2019-May-16 22:31N 57°51' E 011°11'816.8
2019-May-16 22:01N 57°59' E 011°07'917.1
2019-May-16 21:31N 58°07' E 011°02'917.1
2019-May-16 21:00N 58°16' E 010°58'816.8
2019-May-16 20:30N 58°24' E 010°54'917.0
2019-May-16 20:00N 58°32' E 010°50'917.1
2019-May-16 19:30N 58°40' E 010°45'916.9
2019-May-16 18:59N 58°49' E 010°41'817.2
2019-May-16 18:31N 58°56' E 010°36'816.8
2019-May-16 18:01N 59°05' E 010°36'917.2
2019-May-16 17:31N 59°14' E 010°37'917.7
2019-May-16 17:01N 59°22' E 010°35'917.4
2019-May-16 16:31N 59°31' E 010°35'816.6
2019-May-16 16:00N 59°39' E 010°37'714.9
2019-May-16 15:30N 59°46' E 010°33'815.9
2019-May-16 15:00N 59°53' E 010°41'2 4.0
2019-May-16 14:29N 59°54' E 010°45'0 0.0
2019-May-16 13:59N 59°54' E 010°45'0 0.0
2019-May-16 13:29N 59°54' E 010°45'0 0.0
2019-May-16 12:59N 59°54' E 010°45'0 0.0
2019-May-16 12:29N 59°54' E 010°45'0 0.0
2019-May-16 11:59N 59°54' E 010°45'0 0.0
2019-May-16 11:29N 59°54' E 010°45'0 0.0
2019-May-16 10:59N 59°54' E 010°45'0 0.0
2019-May-16 10:29N 59°54' E 010°45'0 0.0
2019-May-16 09:59N 59°54' E 010°45'0 0.0
2019-May-16 09:29N 59°54' E 010°45'0 0.0
2019-May-16 08:59N 59°54' E 010°45'0 0.0
2019-May-16 08:29N 59°54' E 010°45'0 0.0
2019-May-16 07:59N 59°54' E 010°45'0 0.3
2019-May-16 07:30N 59°54' E 010°45'713.8
2019-May-16 07:00N 59°49' E 010°35'815.6
2019-May-16 06:30N 59°41' E 010°36'714.4
2019-May-16 06:00N 59°34' E 010°38'815.8
2019-May-16 05:30N 59°27' E 010°34'815.2
2019-May-16 05:00N 59°19' E 010°36'815.4
2019-May-16 04:30N 59°12' E 010°39'815.5
2019-May-16 04:00N 59°04' E 010°41'815.4
2019-May-16 03:31N 58°56' E 010°42'815.3
2019-May-16 03:00N 58°49' E 010°44'815.4
2019-May-16 02:30N 58°41' E 010°46'815.5
2019-May-16 02:00N 58°34' E 010°51'815.4
2019-May-16 01:31N 58°27' E 010°56'815.2
2019-May-16 01:00N 58°19' E 011°00'815.4
2019-May-16 00:30N 58°12' E 011°05'815.7
2019-May-16 00:00N 58°05' E 011°10'815.7
2019-May-15 23:30N 57°57' E 011°15'815.7
2019-May-15 23:00N 57°50' E 011°20'815.8
2019-May-15 22:30N 57°43' E 011°26'816.3
2019-May-15 22:00N 57°35' E 011°30'816.1
2019-May-15 21:30N 57°27' E 011°36'816.3
2019-May-15 21:00N 57°20' E 011°44'816.7
2019-May-15 20:31N 57°13' E 011°52'816.8
2019-May-15 20:00N 57°06' E 011°59'816.4
2019-May-15 19:30N 56°58' E 012°05'816.5
2019-May-15 19:00N 56°50' E 012°10'916.4
2019-May-15 18:29N 56°42' E 012°13'815.9
2019-May-15 18:00N 56°35' E 012°16'815.8
2019-May-15 17:30N 56°27' E 012°20'816.0
2019-May-15 17:00N 56°19' E 012°23'816.7
2019-May-15 16:30N 56°12' E 012°29'917.5
2019-May-15 16:00N 56°04' E 012°37'816.8
2019-May-15 15:30N 55°57' E 012°43'816.9
2019-May-15 15:00N 55°48' E 012°43'713.9
2019-May-15 14:30N 55°42' E 012°36'0 0.3
2019-May-15 14:00N 55°42' E 012°36'0 0.0
2019-May-15 13:30N 55°42' E 012°36'0 0.0
2019-May-15 13:00N 55°42' E 012°36'0 0.0
2019-May-15 12:30N 55°42' E 012°36'0 0.0
2019-May-15 12:00N 55°42' E 012°36'0 0.0
2019-May-15 11:30N 55°42' E 012°36'0 0.0
2019-May-15 11:00N 55°42' E 012°36'0 0.0
2019-May-15 10:30N 55°42' E 012°36'0 0.0
2019-May-15 09:58N 55°42' E 012°36'0 0.0
2019-May-15 09:30N 55°42' E 012°36'0 0.0
2019-May-15 09:00N 55°42' E 012°36'0 0.0
2019-May-15 08:30N 55°42' E 012°36'0 0.0
2019-May-15 08:00N 55°42' E 012°36'0 0.7
2019-May-15 07:31N 55°42' E 012°36'510.2
2019-May-15 07:00N 55°47' E 012°42'713.4
2019-May-15 06:30N 55°53' E 012°40'714.1
2019-May-15 06:00N 56°00' E 012°40'714.0
2019-May-15 05:30N 56°06' E 012°33'714.3
2019-May-15 05:00N 56°12' E 012°27'5516.1
2019-May-15 01:34N 57°05' E 011°58'116.6
2019-May-15 01:29N 57°07' E 011°57'816.4
2019-May-15 01:00N 57°14' E 011°52'816.3
2019-May-15 00:30N 57°21' E 011°44'816.5
2019-May-15 00:00N 57°28' E 011°36'816.6
2019-May-14 23:30N 57°35' E 011°28'917.1
2019-May-14 23:00N 57°43' E 011°22'917.3
2019-May-14 22:30N 57°51' E 011°16'917.4
2019-May-14 22:00N 57°59' E 011°11'816.9
2019-May-14 21:30N 58°07' E 011°07'816.6
2019-May-14 21:00N 58°15' E 011°02'916.9
2019-May-14 20:30N 58°23' E 010°58'917.1
2019-May-14 19:58N 58°32' E 010°53'816.6
2019-May-14 19:30N 58°40' E 010°49'816.6
2019-May-14 19:00N 58°48' E 010°46'816.8
2019-May-14 18:30N 58°56' E 010°43'917.0
2019-May-14 18:00N 59°04' E 010°41'917.2
2019-May-14 17:30N 59°13' E 010°38'917.2
2019-May-14 17:00N 59°21' E 010°35'816.6
2019-May-14 16:30N 59°30' E 010°34'815.9
2019-May-14 16:00N 59°37' E 010°37'713.7
2019-May-14 15:30N 59°44' E 010°33'816.0
2019-May-14 15:00N 59°52' E 010°37'5 9.2
2019-May-14 14:30N 59°54' E 010°45'0 0.0
2019-May-14 13:58N 59°54' E 010°45'0 0.0
2019-May-14 13:28N 59°54' E 010°45'0 0.0
2019-May-14 12:58N 59°54' E 010°45'0 0.0
2019-May-14 12:28N 59°54' E 010°45'0 0.0
2019-May-14 11:58N 59°54' E 010°45'0 0.0
2019-May-14 11:28N 59°54' E 010°45'0 0.0
2019-May-14 10:58N 59°54' E 010°45'0 0.0
2019-May-14 10:28N 59°54' E 010°45'0 0.0
2019-May-14 09:58N 59°54' E 010°45'0 0.0
2019-May-14 09:28N 59°54' E 010°45'0 0.0
2019-May-14 08:58N 59°54' E 010°45'0 0.0
2019-May-14 08:28N 59°54' E 010°45'0 0.0
2019-May-14 07:58N 59°54' E 010°45'0 0.2
2019-May-14 07:29N 59°54' E 010°45'612.7
2019-May-14 07:00N 59°50' E 010°36'815.4
2019-May-14 06:30N 59°42' E 010°36'713.7
2019-May-14 06:01N 59°35' E 010°38'714.9
2019-May-14 05:31N 59°28' E 010°34'815.3
2019-May-14 05:01N 59°21' E 010°36'815.3
2019-May-14 04:31N 59°13' E 010°38'815.4
2019-May-14 04:01N 59°05' E 010°40'815.7
2019-May-14 03:31N 58°58' E 010°42'815.8
2019-May-14 03:00N 58°50' E 010°44'815.9
2019-May-14 02:31N 58°42' E 010°45'816.0
2019-May-14 02:00N 58°34' E 010°50'816.0
2019-May-14 01:30N 58°27' E 010°55'815.8
2019-May-14 01:00N 58°19' E 010°60'816.0
2019-May-14 00:30N 58°12' E 011°05'816.2
2019-May-14 00:01N 58°04' E 011°10'816.4
2019-May-13 23:31N 57°56' E 011°14'816.2
2019-May-13 23:01N 57°49' E 011°19'816.5
2019-May-13 22:31N 57°41' E 011°25'816.7
2019-May-13 22:01N 57°33' E 011°31'917.0
2019-May-13 21:30N 57°26' E 011°38'816.8
2019-May-13 21:01N 57°19' E 011°47'816.9
2019-May-13 20:30N 57°11' E 011°54'917.1
2019-May-13 20:00N 57°03' E 012°01'816.8
2019-May-13 19:30N 56°55' E 012°06'5116.1
2019-May-13 16:20N 56°07' E 012°34'516.9
2019-May-13 16:01N 56°02' E 012°40'816.5
2019-May-13 15:31N 55°55' E 012°44'816.2
2019-May-13 15:01N 55°47' E 012°42'611.2
2019-May-13 14:30N 55°42' E 012°36'0 0.0
2019-May-13 14:00N 55°42' E 012°36'0 0.0
2019-May-13 13:30N 55°42' E 012°36'0 0.0
2019-May-13 13:00N 55°42' E 012°36'0 0.0
2019-May-13 12:30N 55°42' E 012°36'0 0.0
2019-May-13 12:00N 55°42' E 012°36'0 0.0
2019-May-13 11:30N 55°42' E 012°36'0 0.0
2019-May-13 11:00N 55°42' E 012°36'0 0.0
2019-May-13 10:30N 55°42' E 012°36'0 0.0
2019-May-13 10:00N 55°42' E 012°36'0 0.0
2019-May-13 09:30N 55°42' E 012°36'0 0.0
2019-May-13 09:00N 55°42' E 012°36'0 0.0
2019-May-13 08:30N 55°42' E 012°36'0 0.0
2019-May-13 08:00N 55°42' E 012°36'0 0.7
2019-May-13 07:30N 55°42' E 012°36'510.0
2019-May-13 07:00N 55°46' E 012°41'714.0
2019-May-13 06:30N 55°53' E 012°40'714.5
2019-May-13 06:00N 56°01' E 012°40'714.6
2019-May-13 05:30N 56°07' E 012°33'815.3
2019-May-13 05:00N 56°13' E 012°26'5315.6
2019-May-13 01:36N 57°04' E 011°57'815.7
2019-May-13 01:06N 57°12' E 011°53'216.4
2019-May-13 01:00N 57°13' E 011°52'816.3
2019-May-13 00:30N 57°20' E 011°45'816.0
2019-May-13 00:00N 57°27' E 011°37'816.5
2019-May-12 23:30N 57°34' E 011°29'816.1
2019-May-12 23:00N 57°41' E 011°22'816.0
2019-May-12 22:30N 57°49' E 011°16'816.0
2019-May-12 22:00N 57°56' E 011°12'815.9
2019-May-12 21:30N 58°04' E 011°09'816.4
2019-May-12 21:00N 58°12' E 011°04'816.5
2019-May-12 20:30N 58°20' E 010°59'816.1
2019-May-12 20:00N 58°27' E 010°55'815.6
2019-May-12 19:30N 58°35' E 010°51'816.3
2019-May-12 19:00N 58°43' E 010°47'816.5
2019-May-12 18:30N 58°51' E 010°44'816.2
2019-May-12 18:00N 58°59' E 010°42'816.4
2019-May-12 17:30N 59°07' E 010°39'816.9
2019-May-12 17:00N 59°15' E 010°37'917.2
2019-May-12 16:31N 59°24' E 010°34'917.0
2019-May-12 16:01N 59°32' E 010°36'816.6
2019-May-12 15:30N 59°40' E 010°37'815.6
2019-May-12 15:00N 59°48' E 010°34'815.1
2019-May-12 14:30N 59°54' E 010°43'1 1.3
2019-May-12 14:00N 59°54' E 010°45'0 0.0
2019-May-12 13:29N 59°54' E 010°45'0 0.0
2019-May-12 12:59N 59°54' E 010°45'0 0.0
2019-May-12 12:28N 59°54' E 010°45'0 0.0
2019-May-12 11:54N 59°54' E 010°45'0 0.0
2019-May-12 11:27N 59°54' E 010°45'0 0.0
2019-May-12 10:56N 59°54' E 010°45'0 0.0
2019-May-12 10:25N 59°54' E 010°45'0 0.0
2019-May-12 09:58N 59°54' E 010°45'0 0.0
2019-May-12 09:30N 59°54' E 010°45'0 0.0
2019-May-12 08:56N 59°54' E 010°45'0 0.0
2019-May-12 08:29N 59°54' E 010°45'0 0.0
2019-May-12 07:58N 59°54' E 010°45'0 0.3
2019-May-12 07:30N 59°54' E 010°45'713.7
2019-May-12 07:00N 59°49' E 010°35'815.1
2019-May-12 06:31N 59°42' E 010°36'714.0
2019-May-12 06:00N 59°35' E 010°38'815.8
2019-May-12 05:30N 59°27' E 010°34'815.7
2019-May-12 05:00N 59°19' E 010°36'815.7
2019-May-12 04:31N 59°12' E 010°39'815.2
2019-May-12 04:01N 59°04' E 010°41'815.7
2019-May-12 03:30N 58°56' E 010°42'816.1
2019-May-12 03:00N 58°48' E 010°44'815.9
2019-May-12 02:30N 58°40' E 010°46'815.8
2019-May-12 02:00N 58°33' E 010°51'815.5
2019-May-12 01:30N 58°26' E 010°56'816.3
2019-May-12 00:59N 58°18' E 011°02'816.5
2019-May-12 00:30N 58°10' E 011°07'816.0
2019-May-12 00:01N 58°03' E 011°12'815.6
2019-May-11 23:31N 57°55' E 011°17'815.9
2019-May-11 23:01N 57°48' E 011°22'816.3
2019-May-11 22:31N 57°40' E 011°26'816.8
2019-May-11 22:01N 57°32' E 011°32'816.0
2019-May-11 21:31N 57°25' E 011°39'815.7
2019-May-11 21:01N 57°19' E 011°46'816.1
2019-May-11 20:31N 57°12' E 011°54'816.4
2019-May-11 20:01N 57°04' E 011°60'916.5
2019-May-11 19:28N 56°56' E 012°06'3716.1
2019-May-11 17:09N 56°20' E 012°23'1516.3
2019-May-11 16:14N 56°06' E 012°35'416.1
2019-May-11 16:01N 56°04' E 012°39'816.1
2019-May-11 15:31N 55°56' E 012°43'815.5
2019-May-11 15:01N 55°48' E 012°43'713.4
2019-May-11 14:30N 55°42' E 012°37'1 0.9
2019-May-11 13:55N 55°42' E 012°36'0 0.0
2019-May-11 13:25N 55°42' E 012°36'0 0.0
2019-May-11 12:58N 55°42' E 012°36'0 0.0
2019-May-11 12:25N 55°42' E 012°36'0 0.0
2019-May-11 11:55N 55°42' E 012°36'0 0.0
2019-May-11 11:28N 55°42' E 012°36'0 0.0
2019-May-11 10:55N 55°42' E 012°36'0 0.0
2019-May-11 10:07N 55°42' E 012°36'0 0.0
2019-May-11 09:55N 55°42' E 012°36'0 0.0
2019-May-11 09:28N 55°42' E 012°36'0 0.0
2019-May-11 08:49N 55°42' E 012°36'0 0.0
2019-May-11 08:25N 55°42' E 012°36'0 0.0
2019-May-11 07:49N 55°42' E 012°36'0 0.6
2019-May-11 07:31N 55°42' E 012°36'4 9.0
2019-May-11 07:00N 55°46' E 012°41'714.9
2019-May-11 06:30N 55°53' E 012°40'714.7
2019-May-11 06:00N 56°00' E 012°40'714.9
2019-May-11 05:30N 56°07' E 012°32'815.1
2019-May-11 05:00N 56°13' E 012°26'6616.0
2019-May-11 00:52N 57°16' E 011°49'616.9
2019-May-11 00:30N 57°21' E 011°43'816.9
2019-May-11 00:00N 57°28' E 011°34'816.4
2019-May-10 23:30N 57°36' E 011°28'816.8
2019-May-10 23:00N 57°44' E 011°21'816.4
2019-May-10 22:30N 57°51' E 011°16'816.0
2019-May-10 22:00N 57°59' E 011°12'815.9
2019-May-10 21:30N 58°07' E 011°07'816.1
2019-May-10 21:00N 58°14' E 011°03'816.5
2019-May-10 20:30N 58°22' E 010°58'816.4
2019-May-10 20:00N 58°30' E 010°54'816.0
2019-May-10 19:29N 58°38' E 010°50'815.9
2019-May-10 19:00N 58°45' E 010°46'816.1
2019-May-10 18:30N 58°53' E 010°44'816.4
2019-May-10 18:00N 59°01' E 010°41'816.7
2019-May-10 17:30N 59°10' E 010°38'816.6
2019-May-10 17:00N 59°18' E 010°36'816.7
2019-May-10 16:30N 59°26' E 010°33'817.0
2019-May-10 16:00N 59°34' E 010°38'715.0
2019-May-10 15:30N 59°42' E 010°36'815.8
2019-May-10 15:00N 59°49' E 010°34'713.5
2019-May-10 14:30N 59°54' E 010°44'0 0.3
2019-May-10 13:56N 59°54' E 010°45'0 0.0
2019-May-10 13:26N 59°54' E 010°45'0 0.0
2019-May-10 12:56N 59°54' E 010°45'0 0.0
2019-May-10 12:27N 59°54' E 010°45'0 0.0
2019-May-10 11:56N 59°54' E 010°45'0 0.0
2019-May-10 11:26N 59°54' E 010°45'0 0.0
2019-May-10 10:56N 59°54' E 010°45'0 0.0
2019-May-10 10:26N 59°54' E 010°45'0 0.0
2019-May-10 09:56N 59°54' E 010°45'0 0.0
2019-May-10 09:26N 59°54' E 010°45'0 0.0
2019-May-10 08:56N 59°54' E 010°45'0 0.0
2019-May-10 08:27N 59°54' E 010°45'0 0.0
2019-May-10 07:56N 59°54' E 010°45'0 0.4
2019-May-10 07:29N 59°54' E 010°44'714.6
2019-May-10 07:00N 59°49' E 010°35'714.3
2019-May-10 06:30N 59°42' E 010°36'713.6
2019-May-10 06:01N 59°35' E 010°38'714.9
2019-May-10 05:30N 59°28' E 010°34'714.9
2019-May-10 05:01N 59°20' E 010°36'815.5
2019-May-10 04:30N 59°13' E 010°38'815.5
2019-May-10 04:01N 59°05' E 010°40'815.5
2019-May-10 03:30N 58°57' E 010°42'815.9
2019-May-10 03:00N 58°49' E 010°44'  

Dump ship's entire track history